Pagina principale
METAR-TAF:

METAR-TAF

Aeroporti :

Siteki, Swaziland

latitudine: 26-28-20S, longitudine: 31-56-34E, altezza: 677 m

Osservazione

Il bollettino è stato emesso 14 ore e 34 minuti fa, alle 05:00 UTC
Vento calmo
Temperature 12°C
Umidità 100%
Pressione 1017 hPa

METAR: FDST 100500Z AUTO 00000KT //// // ////// 12/12 Q1017

Ora: 21:34 (19:34 UTC)


TAF: mancante

Osservazioni e previsioni meteorologiche di più di 4000 aeroporti (messaggi METAR e TAF).

Le stazioni disponibili sono rappresentate dai dischi gialli e rossi sulla carta.

Puntare il mouse per vedere il nome della stazione.

Clicca sopra per visualizzare le osservazioni e previsioni meteorologiche.

Per cambiare la mappa : fare clic sui pulsanti verdi con una croce nera per ingrandire, il pulsante verde con un trattino per diminuire, o sulla freccia verde per le mappe adiacenti.


METAR-TAF: